4XCWC LLHZ-LLHZ

Flight info

Callsign 4XCWC
Flight time 0h 8m
Altitude 800
Route CVFR
Aircraft DA40/L-VD/A

Departure

Time 2026-04-12 18:09
Airport Herzliya Airport (LLHZ)

Arrival

Time 2026-04-12 18:18
Airport Herzliya Airport (LLHZ)
Time Latitude Longitude Altitude Speed Heading
2026-04-12 18:05 32.17881 34.83779 125 ft 0 kts 110°
2026-04-12 18:08 32.17895 34.83837 120 ft 19 kts 70°
2026-04-12 18:08 32.17924 34.83818 122 ft 11 kts 289°
2026-04-12 18:09 32.18007 34.83540 107 ft 71 kts 290°
2026-04-12 18:09 32.18196 34.82936 389 ft 73 kts 301°
2026-04-12 18:09 32.18684 34.82874 659 ft 82 kts
2026-04-12 18:09 32.19224 34.82978 974 ft 80 kts 18°
2026-04-12 18:10 32.19254 34.83578 1146 ft 97 kts 126°
2026-04-12 18:10 32.18870 34.84278 1345 ft 108 kts 113°
2026-04-12 18:10 32.18563 34.85095 1326 ft 105 kts 128°
2026-04-12 18:10 32.17974 34.85388 1276 ft 90 kts 192°
2026-04-12 18:11 32.17505 34.85067 1124 ft 79 kts 274°
2026-04-12 18:11 32.17726 34.84387 464 ft 100 kts 292°
2026-04-12 18:11 32.17970 34.83650 116 ft 90 kts 288°
2026-04-12 18:11 32.18140 34.83135 451 ft 65 kts 294°
2026-04-12 18:12 32.18488 34.83042 749 ft 69 kts 33°
2026-04-12 18:12 32.18941 34.82989 841 ft 85 kts 345°
2026-04-12 18:12 32.19149 34.83536 973 ft 105 kts 109°
2026-04-12 18:12 32.19109 34.83668 985 ft 109 kts 110°
2026-04-12 18:14 32.18864 34.84410 931 ft 114 kts 115°
2026-04-12 18:14 32.18676 34.85174 977 ft 84 kts 118°
2026-04-12 18:14 32.18123 34.85310 927 ft 93 kts 192°
2026-04-12 18:14 32.17726 34.84906 880 ft 78 kts 262°
2026-04-12 18:15 32.17782 34.84216 348 ft 95 kts 289°
2026-04-12 18:15 32.18005 34.83527 111 ft 84 kts 290°
2026-04-12 18:15 32.18199 34.82895 304 ft 81 kts 299°
2026-04-12 18:15 32.18714 34.82845 630 ft 82 kts 10°
2026-04-12 18:16 32.19244 34.83119 877 ft 87 kts 58°
2026-04-12 18:16 32.19080 34.83804 1076 ft 102 kts 115°
2026-04-12 18:16 32.18778 34.84663 900 ft 119 kts 113°
2026-04-12 18:16 32.18343 34.85325 881 ft 84 kts 181°
2026-04-12 18:17 32.17826 34.85215 793 ft 69 kts 218°
2026-04-12 18:17 32.17688 34.84667 510 ft 78 kts 278°
2026-04-12 18:17 32.17854 34.84035 209 ft 82 kts 291°
2026-04-12 18:17 32.18029 34.83439 106 ft 70 kts 287°
2026-04-12 18:18 32.18167 34.82991 98 ft 39 kts 255°
2026-04-12 18:18 32.18164 34.82865 98 ft 0 kts 330°
2026-04-12 18:18 32.18158 34.82822 98 ft 9 kts 284°
2026-04-12 18:18 32.18162 34.82809 98 ft 0 kts 283°